createdAt,value
2018-01-02T00:00:27.056Z,995.59
2018-01-02T00:01:26.995Z,995.59
2018-01-02T00:02:26.942Z,995.63
2018-01-02T00:03:26.862Z,995.71
2018-01-02T00:04:26.797Z,995.82
2018-01-02T00:05:26.730Z,995.75
2018-01-02T00:06:26.669Z,995.79
2018-01-02T00:07:26.600Z,995.82
2018-01-02T00:08:26.538Z,995.77
2018-01-02T00:09:26.469Z,995.74
2018-01-02T00:10:26.406Z,995.78
2018-01-02T00:11:26.340Z,995.80
2018-01-02T00:12:26.274Z,995.91
2018-01-02T00:13:26.210Z,995.78
2018-01-02T00:14:26.145Z,995.81
2018-01-02T00:15:26.080Z,995.93
2018-01-02T00:16:26.014Z,995.98
2018-01-02T00:17:25.948Z,995.99
2018-01-02T00:18:25.883Z,995.98
2018-01-02T00:19:25.818Z,996.03
2018-01-02T00:20:25.753Z,996.07
2018-01-02T00:21:25.688Z,996.09
2018-01-02T00:22:25.622Z,996.14
2018-01-02T00:23:25.557Z,996.18
2018-01-02T00:24:25.492Z,996.22
2018-01-02T00:25:25.429Z,996.23
2018-01-02T00:26:25.362Z,996.19
2018-01-02T00:27:25.296Z,996.27
2018-01-02T00:28:25.230Z,996.29
2018-01-02T00:29:25.165Z,996.33
2018-01-02T00:30:25.101Z,996.32
2018-01-02T00:31:25.035Z,996.32
2018-01-02T00:32:24.975Z,996.36
2018-01-02T00:33:24.905Z,996.40
2018-01-02T00:34:24.840Z,996.39
2018-01-02T00:35:24.775Z,996.35
2018-01-02T00:36:24.708Z,996.36
2018-01-02T00:37:24.643Z,996.44
2018-01-02T00:38:24.582Z,996.47
2018-01-02T00:39:24.514Z,996.50
2018-01-02T00:40:24.448Z,996.48
2018-01-02T00:41:24.383Z,996.55
2018-01-02T00:42:24.318Z,996.49
2018-01-02T00:43:24.252Z,996.46
2018-01-02T00:44:24.188Z,996.54
2018-01-02T00:45:24.122Z,996.52
2018-01-02T00:46:24.056Z,996.43
2018-01-02T00:47:23.990Z,996.54
2018-01-02T00:48:23.926Z,996.54
2018-01-02T00:49:23.859Z,996.56
2018-01-02T00:50:23.796Z,996.61
2018-01-02T00:51:23.730Z,996.58
2018-01-02T00:52:23.665Z,996.54
2018-01-02T00:53:23.599Z,996.59
2018-01-02T00:54:23.533Z,996.63
2018-01-02T00:55:23.468Z,996.65
2018-01-02T00:56:23.402Z,996.64
2018-01-02T00:57:23.338Z,996.74
2018-01-02T00:58:23.272Z,996.75
2018-01-02T00:59:23.207Z,996.70
2018-01-02T01:00:23.140Z,996.78
2018-01-02T01:01:23.076Z,996.75
2018-01-02T01:02:23.011Z,996.81
2018-01-02T01:03:22.945Z,996.82
2018-01-02T01:04:22.880Z,996.84
2018-01-02T01:05:22.815Z,996.79
2018-01-02T01:06:22.749Z,996.82
2018-01-02T01:07:22.685Z,996.86
2018-01-02T01:08:22.619Z,996.85
2018-01-02T01:09:22.553Z,996.86
2018-01-02T01:10:22.487Z,996.98
2018-01-02T01:11:22.422Z,996.87
2018-01-02T01:12:22.356Z,996.76
2018-01-02T01:13:22.290Z,996.97
2018-01-02T01:14:22.225Z,997.04
2018-01-02T01:15:22.160Z,997.11
2018-01-02T01:16:22.094Z,997.15
2018-01-02T01:17:22.028Z,997.17
2018-01-02T01:18:21.963Z,997.17
2018-01-02T01:19:21.898Z,997.15
2018-01-02T01:20:21.831Z,997.22
2018-01-02T01:21:21.765Z,997.36
2018-01-02T01:22:21.699Z,997.37
2018-01-02T01:23:21.635Z,997.32
2018-01-02T01:24:21.569Z,997.32
2018-01-02T01:25:21.502Z,997.36
2018-01-02T01:26:21.437Z,997.51
2018-01-02T01:27:21.371Z,997.52
2018-01-02T01:28:21.305Z,997.51
2018-01-02T01:29:21.239Z,997.51
2018-01-02T01:30:21.174Z,997.55
2018-01-02T01:31:21.109Z,997.57
2018-01-02T01:32:21.042Z,997.60
2018-01-02T01:33:20.977Z,997.59
2018-01-02T01:34:20.913Z,997.59
2018-01-02T01:35:20.850Z,997.55
2018-01-02T01:36:20.777Z,997.62
2018-01-02T01:37:20.713Z,997.64
2018-01-02T01:38:20.648Z,997.64
2018-01-02T01:39:20.581Z,997.69
2018-01-02T01:40:20.515Z,997.71
2018-01-02T01:41:20.453Z,997.76
2018-01-02T01:42:20.383Z,997.80
2018-01-02T01:43:20.318Z,997.80
2018-01-02T01:44:20.256Z,997.78
2018-01-02T01:45:20.187Z,997.81
2018-01-02T01:46:20.121Z,997.87
2018-01-02T01:47:20.056Z,997.87
2018-01-02T01:48:19.991Z,997.96
2018-01-02T01:49:19.924Z,997.94
2018-01-02T01:50:19.860Z,997.93
2018-01-02T01:51:19.793Z,997.97
2018-01-02T01:52:19.727Z,998.07
2018-01-02T01:53:19.661Z,998.05
2018-01-02T01:54:19.598Z,998.01
2018-01-02T01:55:19.531Z,998.05
2018-01-02T01:56:19.465Z,998.02
2018-01-02T01:57:19.399Z,998.10
2018-01-02T01:58:19.341Z,998.04
2018-01-02T01:59:19.268Z,998.07
2018-01-02T02:00:19.203Z,998.19
2018-01-02T02:01:19.136Z,998.17
2018-01-02T02:02:19.070Z,998.15
2018-01-02T02:03:19.006Z,998.09
2018-01-02T02:04:18.939Z,998.27
2018-01-02T02:05:18.875Z,998.25
2018-01-02T02:06:18.809Z,998.32
2018-01-02T02:07:18.745Z,998.29
2018-01-02T02:08:18.677Z,998.29
2018-01-02T02:09:18.611Z,998.26
2018-01-02T02:10:18.547Z,998.36
2018-01-02T02:11:18.481Z,998.25
2018-01-02T02:12:18.414Z,998.30
2018-01-02T02:13:18.350Z,998.30
2018-01-02T02:14:18.284Z,998.37
2018-01-02T02:15:18.219Z,998.39
2018-01-02T02:16:18.153Z,998.38
2018-01-02T02:17:18.088Z,998.39
2018-01-02T02:18:18.026Z,998.37
2018-01-02T02:19:17.957Z,998.39
2018-01-02T02:20:17.895Z,998.35
2018-01-02T02:21:17.827Z,998.35
2018-01-02T02:22:17.762Z,998.41
2018-01-02T02:23:17.696Z,998.48
2018-01-02T02:24:17.634Z,998.38
2018-01-02T02:25:17.565Z,998.40
2018-01-02T02:26:17.500Z,998.39
2018-01-02T02:27:17.434Z,998.38
2018-01-02T02:28:17.368Z,998.41
2018-01-02T02:29:17.303Z,998.39
2018-01-02T02:30:17.239Z,998.33
2018-01-02T02:31:17.173Z,998.41
2018-01-02T02:32:17.106Z,998.45
2018-01-02T02:33:17.043Z,998.48
2018-01-02T02:34:16.976Z,998.48
2018-01-02T02:35:16.913Z,998.56
2018-01-02T02:36:16.844Z,998.58
2018-01-02T02:37:16.780Z,998.54
2018-01-02T02:38:16.716Z,998.54
2018-01-02T02:39:16.650Z,998.53
2018-01-02T02:40:16.583Z,998.51
2018-01-02T02:41:16.519Z,998.51
2018-01-02T02:42:16.453Z,998.40
2018-01-02T02:43:16.389Z,998.43
2018-01-02T02:44:16.322Z,998.47
2018-01-02T02:45:16.257Z,998.50
2018-01-02T02:46:16.203Z,998.55
2018-01-02T02:47:16.126Z,998.56
2018-01-02T02:48:16.062Z,998.47
2018-01-02T02:49:15.996Z,998.53
2018-01-02T02:50:15.930Z,998.60
2018-01-02T02:51:15.865Z,998.67
2018-01-02T02:52:15.800Z,998.68
2018-01-02T02:53:15.734Z,998.65
2018-01-02T02:54:15.670Z,998.63
2018-01-02T02:55:15.604Z,998.51
2018-01-02T02:56:15.538Z,998.59
2018-01-02T02:57:15.475Z,998.58
2018-01-02T02:58:15.408Z,998.65
2018-01-02T02:59:15.343Z,998.69
2018-01-02T03:00:15.276Z,998.65
2018-01-02T03:01:15.212Z,998.64
2018-01-02T03:02:15.146Z,998.58
2018-01-02T03:03:15.081Z,998.57
2018-01-02T03:04:15.015Z,998.63
2018-01-02T03:05:14.950Z,998.55
2018-01-02T03:06:14.887Z,998.57
2018-01-02T03:07:14.819Z,998.50
2018-01-02T03:08:14.754Z,998.57
2018-01-02T03:09:14.687Z,998.59
2018-01-02T03:10:14.623Z,998.63
2018-01-02T03:11:14.558Z,998.72
2018-01-02T03:12:14.493Z,998.80
2018-01-02T03:13:14.428Z,998.75
2018-01-02T03:14:14.362Z,998.73
2018-01-02T03:15:14.297Z,998.74
2018-01-02T03:16:14.231Z,998.78
2018-01-02T03:17:14.166Z,998.81
2018-01-02T03:18:14.100Z,998.81
2018-01-02T03:19:14.035Z,998.81
2018-01-02T03:20:13.974Z,998.80
2018-01-02T03:21:13.904Z,998.80
2018-01-02T03:22:13.839Z,998.83
2018-01-02T03:23:13.774Z,998.80
2018-01-02T03:24:13.707Z,998.79
2018-01-02T03:25:13.642Z,998.83
2018-01-02T03:26:13.580Z,998.80
2018-01-02T03:27:13.512Z,998.78
2018-01-02T03:28:13.447Z,998.75
2018-01-02T03:29:13.705Z,998.75
2018-01-02T03:30:13.316Z,998.77
2018-01-02T03:31:13.251Z,998.74
2018-01-02T03:32:13.186Z,998.78
2018-01-02T03:33:13.118Z,998.81
2018-01-02T03:34:13.054Z,998.72
2018-01-02T03:35:12.987Z,998.75
2018-01-02T03:36:12.924Z,998.80
2018-01-02T03:37:12.858Z,998.80
2018-01-02T03:38:12.791Z,998.80
2018-01-02T03:39:12.729Z,998.81
2018-01-02T03:40:12.661Z,998.79
2018-01-02T03:41:12.596Z,998.87
2018-01-02T03:42:12.533Z,998.97
2018-01-02T03:43:12.465Z,998.85
2018-01-02T03:44:12.402Z,998.87
2018-01-02T03:45:12.335Z,998.68
2018-01-02T03:46:12.268Z,998.65
2018-01-02T03:47:12.206Z,998.70
2018-01-02T03:48:12.136Z,998.73
2018-01-02T03:49:12.073Z,998.65
2018-01-02T03:50:12.005Z,998.67
2018-01-02T03:51:11.941Z,998.69
2018-01-02T03:52:11.876Z,998.74
2018-01-02T03:53:11.809Z,998.66
2018-01-02T03:54:11.743Z,998.66
2018-01-02T03:55:11.682Z,998.70
2018-01-02T03:56:11.613Z,998.72
2018-01-02T03:57:11.547Z,998.72
2018-01-02T03:58:11.484Z,998.75
2018-01-02T03:59:11.419Z,998.79
2018-01-02T04:00:11.352Z,998.77
2018-01-02T04:01:11.287Z,998.75
2018-01-02T04:02:11.221Z,998.76
2018-01-02T04:03:11.156Z,998.73
2018-01-02T04:04:11.090Z,998.72
2018-01-02T04:05:11.025Z,998.73
2018-01-02T04:06:10.960Z,998.79
2018-01-02T04:07:10.894Z,998.82
2018-01-02T04:08:10.828Z,998.75
2018-01-02T04:09:10.813Z,998.77
2018-01-02T04:10:10.721Z,998.85
2018-01-02T04:11:10.634Z,998.87
2018-01-02T04:12:10.566Z,998.91
2018-01-02T04:13:10.502Z,998.93
2018-01-02T04:14:10.436Z,998.94
2018-01-02T04:15:10.371Z,998.99
2018-01-02T04:16:10.304Z,998.99
2018-01-02T04:17:10.239Z,999.05
2018-01-02T04:18:10.173Z,999.04
2018-01-02T04:19:10.110Z,999.05
2018-01-02T04:20:10.042Z,999.09
2018-01-02T04:21:09.975Z,999.08
2018-01-02T04:22:09.911Z,999.16
2018-01-02T04:23:09.844Z,999.19
2018-01-02T04:24:09.785Z,999.15
2018-01-02T04:25:09.714Z,999.15
2018-01-02T04:26:09.650Z,999.17
2018-01-02T04:27:09.582Z,999.19
2018-01-02T04:28:09.518Z,999.15
2018-01-02T04:29:09.451Z,999.21
2018-01-02T04:30:09.386Z,999.25
2018-01-02T04:31:09.321Z,999.17
2018-01-02T04:32:09.257Z,999.14
2018-01-02T04:33:09.188Z,999.26
2018-01-02T04:34:09.124Z,999.28
2018-01-02T04:35:09.058Z,999.28
2018-01-02T04:36:08.992Z,999.37
2018-01-02T04:37:08.929Z,999.36
2018-01-02T04:38:08.860Z,999.34
2018-01-02T04:39:08.795Z,999.38
2018-01-02T04:40:08.728Z,999.40
2018-01-02T04:41:08.663Z,999.42
2018-01-02T04:42:08.598Z,999.44
2018-01-02T04:43:08.532Z,999.45
2018-01-02T04:44:08.468Z,999.42
2018-01-02T04:45:08.402Z,999.46
2018-01-02T04:46:08.334Z,999.45
2018-01-02T04:47:08.268Z,999.44
2018-01-02T04:48:08.202Z,999.41
2018-01-02T04:49:08.138Z,999.36
2018-01-02T04:50:08.070Z,999.44
2018-01-02T04:51:08.005Z,999.47
2018-01-02T04:52:07.939Z,999.44
2018-01-02T04:53:07.873Z,999.44
2018-01-02T04:54:07.809Z,999.39
2018-01-02T04:55:07.747Z,999.44
2018-01-02T04:56:07.675Z,999.43
2018-01-02T04:57:07.609Z,999.40
2018-01-02T04:58:07.549Z,999.46
2018-01-02T04:59:07.481Z,999.38
2018-01-02T05:00:07.412Z,999.40
2018-01-02T05:01:07.346Z,999.39
2018-01-02T05:02:07.280Z,999.42
2018-01-02T05:03:07.216Z,999.40
2018-01-02T05:04:07.147Z,999.32
2018-01-02T05:05:07.083Z,999.40
2018-01-02T05:06:07.017Z,999.43
2018-01-02T05:07:06.952Z,999.45
2018-01-02T05:08:06.884Z,999.49
2018-01-02T05:09:06.819Z,999.51
2018-01-02T05:10:06.754Z,999.58
2018-01-02T05:11:06.688Z,999.57
2018-01-02T05:12:06.620Z,999.64
2018-01-02T05:13:06.556Z,999.55
2018-01-02T05:14:06.490Z,999.55
2018-01-02T05:15:06.425Z,999.53
2018-01-02T05:16:06.358Z,999.66
2018-01-02T05:17:06.292Z,999.64
2018-01-02T05:18:06.226Z,999.62
2018-01-02T05:19:06.162Z,999.65
2018-01-02T05:20:06.094Z,999.65
2018-01-02T05:21:06.029Z,999.70
2018-01-02T05:22:05.964Z,999.70
2018-01-02T05:23:05.931Z,999.70
2018-01-02T05:24:05.831Z,999.71
2018-01-02T05:25:05.767Z,999.77
2018-01-02T05:26:05.705Z,999.79
2018-01-02T05:27:05.639Z,999.70
2018-01-02T05:28:05.568Z,999.75
2018-01-02T05:29:05.503Z,999.71
2018-01-02T05:30:05.438Z,999.72
2018-01-02T05:31:05.371Z,999.75
2018-01-02T05:32:05.306Z,999.80
2018-01-02T05:33:05.239Z,999.82
2018-01-02T05:34:05.174Z,999.85
2018-01-02T05:35:05.108Z,999.89
2018-01-02T05:36:05.041Z,999.89
2018-01-02T05:37:04.976Z,999.91
2018-01-02T05:38:04.911Z,999.84
2018-01-02T05:39:04.846Z,999.91
2018-01-02T05:40:04.779Z,999.95
2018-01-02T05:41:04.713Z,999.98
2018-01-02T05:42:04.648Z,999.94
2018-01-02T05:43:04.583Z,1000.01
2018-01-02T05:44:04.519Z,999.97
2018-01-02T05:45:04.452Z,1000.07
2018-01-02T05:46:04.384Z,1000.01
2018-01-02T05:47:04.320Z,999.96
2018-01-02T05:48:04.251Z,1000.03
2018-01-02T05:49:04.187Z,1000.15
2018-01-02T05:50:04.152Z,1000.18
2018-01-02T05:51:04.056Z,1000.18
2018-01-02T05:52:03.990Z,1000.24
2018-01-02T05:53:03.924Z,1000.30
2018-01-02T05:54:03.858Z,1000.37
2018-01-02T05:55:03.796Z,1000.37
2018-01-02T05:56:03.725Z,1000.41
2018-01-02T05:57:03.661Z,1000.46
2018-01-02T05:58:03.596Z,1000.51
2018-01-02T05:59:03.531Z,1000.47
2018-01-02T06:00:03.463Z,1000.49
2018-01-02T06:01:03.399Z,1000.50
2018-01-02T06:02:03.332Z,1000.48
2018-01-02T06:03:03.268Z,1000.48
2018-01-02T06:04:03.202Z,1000.51
2018-01-02T06:05:03.137Z,1000.55
2018-01-02T06:06:03.071Z,1000.58
2018-01-02T06:07:03.006Z,1000.57
2018-01-02T06:08:02.940Z,1000.64
2018-01-02T06:09:02.874Z,1000.63
2018-01-02T06:10:02.811Z,1000.62
2018-01-02T06:11:02.744Z,1000.62
2018-01-02T06:12:02.679Z,1000.58
2018-01-02T06:13:02.613Z,1000.63
2018-01-02T06:14:02.549Z,1000.60
2018-01-02T06:15:02.485Z,1000.65
2018-01-02T06:16:02.417Z,1000.61
2018-01-02T06:17:02.352Z,1000.74
2018-01-02T06:18:02.287Z,1000.69
2018-01-02T06:19:02.221Z,1000.67
2018-01-02T06:20:02.156Z,1000.73
2018-01-02T06:21:02.091Z,1000.76
2018-01-02T06:22:02.026Z,1000.74
2018-01-02T06:23:01.961Z,1000.78
2018-01-02T06:24:01.894Z,1000.80
2018-01-02T06:25:01.830Z,1000.76
2018-01-02T06:26:01.764Z,1000.82
2018-01-02T06:27:01.699Z,1000.81
2018-01-02T06:28:01.634Z,1000.88
2018-01-02T06:29:01.568Z,1000.85
2018-01-02T06:30:01.503Z,1000.87
2018-01-02T06:31:01.438Z,1000.85
2018-01-02T06:32:01.372Z,1000.86
2018-01-02T06:33:01.307Z,1000.81
2018-01-02T06:34:01.242Z,1000.82
2018-01-02T06:35:01.177Z,1000.80
2018-01-02T06:36:01.110Z,1000.85
2018-01-02T06:37:01.044Z,1000.83
2018-01-02T06:38:00.980Z,1000.83
2018-01-02T06:39:00.915Z,1000.90
2018-01-02T06:40:00.849Z,1000.97
2018-01-02T06:41:00.784Z,1000.90
2018-01-02T06:42:00.719Z,1000.99
2018-01-02T06:43:00.654Z,1001.02
2018-01-02T06:44:00.588Z,1001.04
2018-01-02T06:45:00.523Z,1001.02
2018-01-02T06:46:00.459Z,1000.97
2018-01-02T06:47:00.393Z,1000.96
2018-01-02T06:48:00.326Z,1001.01
2018-01-02T06:49:00.262Z,1001.06
2018-01-02T06:50:00.196Z,1001.08
2018-01-02T06:51:00.133Z,1001.08
2018-01-02T06:52:00.065Z,1001.12
2018-01-02T06:53:00.000Z,1001.12
2018-01-02T06:53:59.935Z,1001.17
2018-01-02T06:54:59.870Z,1001.17
2018-01-02T06:55:59.805Z,1001.21
2018-01-02T06:56:59.739Z,1001.21
2018-01-02T06:57:59.675Z,1001.21
2018-01-02T06:58:59.609Z,1001.17
2018-01-02T06:59:59.542Z,1001.16
2018-01-02T07:00:59.477Z,1001.18
2018-01-02T07:01:59.419Z,1001.18
2018-01-02T07:02:59.347Z,1001.14
2018-01-02T07:03:59.281Z,1001.17
2018-01-02T07:04:59.216Z,1001.13
2018-01-02T07:05:59.152Z,1001.11
2018-01-02T07:06:59.087Z,1001.19
2018-01-02T07:07:59.020Z,1001.27
2018-01-02T07:08:58.955Z,1001.29
2018-01-02T07:09:58.893Z,1001.30
2018-01-02T07:10:58.826Z,1001.35
2018-01-02T07:11:58.761Z,1001.46
2018-01-02T07:12:58.693Z,1001.49
2018-01-02T07:13:58.630Z,1001.48
2018-01-02T07:14:58.564Z,1001.39
2018-01-02T07:15:58.498Z,1001.45
2018-01-02T07:16:58.433Z,1001.52
2018-01-02T07:17:58.368Z,1001.55
2018-01-02T07:18:58.314Z,1001.58
2018-01-02T07:19:58.238Z,1001.67
2018-01-02T07:20:58.173Z,1001.61
2018-01-02T07:21:58.109Z,1001.59
2018-01-02T07:22:58.042Z,1001.63
2018-01-02T07:23:57.977Z,1001.64
2018-01-02T07:24:57.911Z,1001.68
2018-01-02T07:25:57.847Z,1001.64
2018-01-02T07:26:57.782Z,1001.70
2018-01-02T07:27:57.715Z,1001.70
2018-01-02T07:28:57.652Z,1001.71
2018-01-02T07:29:57.587Z,1001.76
2018-01-02T07:30:57.520Z,1001.73
2018-01-02T07:31:57.456Z,1001.78
2018-01-02T07:32:57.412Z,1001.79
2018-01-02T07:33:57.328Z,1001.80
2018-01-02T07:34:57.260Z,1001.90
2018-01-02T07:35:57.197Z,1001.84
2018-01-02T07:36:57.131Z,1001.90
2018-01-02T07:37:57.063Z,1001.88
2018-01-02T07:38:56.999Z,1001.92
2018-01-02T07:39:56.933Z,1001.97
2018-01-02T07:40:56.869Z,1001.96
2018-01-02T07:41:56.804Z,1001.95
2018-01-02T07:42:56.738Z,1001.92
2018-01-02T07:43:56.676Z,1001.94
2018-01-02T07:44:56.610Z,1001.92
2018-01-02T07:45:56.544Z,1001.89
2018-01-02T07:46:56.479Z,1001.95
2018-01-02T07:47:56.412Z,1002.00
2018-01-02T07:48:56.348Z,1002.03
2018-01-02T07:49:56.282Z,1002.01
2018-01-02T07:50:56.217Z,1002.05
2018-01-02T07:51:56.154Z,1002.05
2018-01-02T07:52:56.408Z,1002.07
2018-01-02T07:53:56.026Z,1002.09
2018-01-02T07:54:55.956Z,1002.10
2018-01-02T07:55:55.890Z,1002.03
2018-01-02T07:56:55.826Z,1002.08
2018-01-02T07:57:55.762Z,1002.10
2018-01-02T07:58:55.696Z,1002.06
2018-01-02T07:59:55.630Z,1002.15
2018-01-02T08:00:55.565Z,1002.14
2018-01-02T08:01:55.501Z,1002.16
2018-01-02T08:02:55.435Z,1002.20
2018-01-02T08:03:55.369Z,1002.22
2018-01-02T08:04:55.305Z,1002.25
2018-01-02T08:05:55.239Z,1002.23
2018-01-02T08:06:55.175Z,1002.29
2018-01-02T08:07:55.109Z,1002.25
2018-01-02T08:08:55.043Z,1002.18
2018-01-02T08:09:54.980Z,1002.29
2018-01-02T08:10:54.912Z,1002.29
2018-01-02T08:11:54.847Z,1002.36
2018-01-02T08:12:54.782Z,1002.39
2018-01-02T08:13:54.717Z,1002.43
2018-01-02T08:14:54.651Z,1002.43
2018-01-02T08:15:54.586Z,1002.45
2018-01-02T08:16:54.521Z,1002.36
2018-01-02T08:17:54.456Z,1002.57
2018-01-02T08:18:54.463Z,1002.64
2018-01-02T08:19:54.324Z,1002.64
2018-01-02T08:20:54.260Z,1002.70
2018-01-02T08:21:54.193Z,1002.77
2018-01-02T08:22:54.131Z,1002.79
2018-01-02T08:23:54.063Z,1002.81
2018-01-02T08:24:54.001Z,1002.84
2018-01-02T08:25:53.934Z,1002.95
2018-01-02T08:26:53.870Z,1003.03
2018-01-02T08:27:53.804Z,1003.06
2018-01-02T08:28:53.739Z,1003.07
2018-01-02T08:29:53.696Z,1003.10
2018-01-02T08:30:53.614Z,1003.17
2018-01-02T08:31:53.553Z,1003.19
2018-01-02T08:32:53.478Z,1003.19
2018-01-02T08:33:53.415Z,1003.25
2018-01-02T08:34:53.358Z,1003.32
2018-01-02T08:35:53.283Z,1003.35
2018-01-02T08:36:53.225Z,1003.32
2018-01-02T08:37:53.154Z,1003.39
2018-01-02T08:38:53.090Z,1003.39
2018-01-02T08:39:53.026Z,1003.38
2018-01-02T08:40:52.960Z,1003.44
2018-01-02T08:41:52.894Z,1003.45
2018-01-02T08:42:52.829Z,1003.47
2018-01-02T08:43:52.765Z,1003.62
2018-01-02T08:44:52.700Z,1003.56
2018-01-02T08:45:52.636Z,1003.63
2018-01-02T08:46:52.570Z,1003.56
2018-01-02T08:47:52.505Z,1003.66
2018-01-02T08:48:52.439Z,1003.64
2018-01-02T08:49:52.374Z,1003.68
2018-01-02T08:50:52.310Z,1003.78
2018-01-02T08:51:52.245Z,1003.81
2018-01-02T08:52:52.180Z,1003.80
2018-01-02T08:53:52.116Z,1003.83
2018-01-02T08:54:52.051Z,1003.82
2018-01-02T08:55:51.986Z,1003.81
2018-01-02T08:56:51.921Z,1003.91
2018-01-02T08:57:51.857Z,1003.94
2018-01-02T08:58:51.791Z,1003.95
2018-01-02T08:59:51.729Z,1003.92
2018-01-02T09:00:51.662Z,1003.94
2018-01-02T09:01:51.597Z,1003.91
2018-01-02T09:02:51.533Z,1003.94
2018-01-02T09:03:51.467Z,1003.94
2018-01-02T09:04:51.402Z,1004.06
2018-01-02T09:05:51.338Z,1004.02
2018-01-02T09:06:51.273Z,1003.99
2018-01-02T09:07:51.208Z,1004.08
2018-01-02T09:08:51.143Z,1004.11
2018-01-02T09:09:51.079Z,1004.12
2018-01-02T09:10:51.014Z,1004.17
2018-01-02T09:11:50.949Z,1004.22
2018-01-02T09:12:50.884Z,1004.25
2018-01-02T09:13:50.820Z,1004.21
2018-01-02T09:14:50.757Z,1004.25
2018-01-02T09:15:50.690Z,1004.23
2018-01-02T09:16:50.626Z,1004.24
2018-01-02T09:17:50.561Z,1004.31
2018-01-02T09:18:50.500Z,1004.33
2018-01-02T09:19:50.431Z,1004.36
2018-01-02T09:20:50.367Z,1004.38
2018-01-02T09:21:50.302Z,1004.39
2018-01-02T09:22:50.237Z,1004.36
2018-01-02T09:23:50.172Z,1004.42
2018-01-02T09:24:50.108Z,1004.47
2018-01-02T09:25:50.043Z,1004.52
2018-01-02T09:26:49.978Z,1004.61
2018-01-02T09:27:49.913Z,1004.58
2018-01-02T09:28:49.848Z,1004.62
2018-01-02T09:29:49.783Z,1004.61
2018-01-02T09:30:49.720Z,1004.53
2018-01-02T09:31:49.653Z,1004.68
2018-01-02T09:32:49.589Z,1004.69
2018-01-02T09:33:49.525Z,1004.71
2018-01-02T09:34:49.461Z,1004.76
2018-01-02T09:35:49.394Z,1004.77
2018-01-02T09:36:49.336Z,1004.69
2018-01-02T09:37:49.267Z,1004.75
2018-01-02T09:38:49.200Z,1004.76
2018-01-02T09:39:49.157Z,1004.77
2018-01-02T09:40:49.072Z,1004.73
2018-01-02T09:41:49.007Z,1004.79
2018-01-02T09:42:48.944Z,1004.78
2018-01-02T09:43:48.877Z,1004.81
2018-01-02T09:44:48.814Z,1004.81
2018-01-02T09:45:48.749Z,1004.82
2018-01-02T09:46:48.685Z,1004.86
2018-01-02T09:47:48.621Z,1004.92
2018-01-02T09:48:48.554Z,1004.88
2018-01-02T09:49:48.490Z,1004.86
2018-01-02T09:50:48.426Z,1004.88
2018-01-02T09:51:48.361Z,1004.94
2018-01-02T09:52:48.296Z,1004.92
2018-01-02T09:53:48.235Z,1004.96
2018-01-02T09:54:48.168Z,1005.00
2018-01-02T09:55:48.103Z,1005.02
2018-01-02T09:56:48.038Z,1004.98
2018-01-02T09:57:47.975Z,1005.17
2018-01-02T09:58:47.910Z,1005.24
2018-01-02T09:59:47.845Z,1005.18
2018-01-02T10:00:47.782Z,1005.18
2018-01-02T10:01:47.718Z,1005.21
2018-01-02T10:02:47.656Z,1005.23
2018-01-02T10:03:47.590Z,1005.29
2018-01-02T10:04:47.528Z,1005.31
2018-01-02T10:05:47.465Z,1005.30
2018-01-02T10:06:47.402Z,1005.21
2018-01-02T10:07:47.340Z,1005.23
2018-01-02T10:08:47.277Z,1005.22
2018-01-02T10:09:47.216Z,1005.18
2018-01-02T10:10:47.153Z,1005.20
2018-01-02T10:11:47.090Z,1005.23
2018-01-02T10:12:47.030Z,1005.24
2018-01-02T10:13:46.969Z,1005.27
2018-01-02T10:14:46.907Z,1005.25
2018-01-02T10:15:46.845Z,1005.25
2018-01-02T10:16:46.790Z,1005.22
2018-01-02T10:17:46.732Z,1005.23
2018-01-02T10:18:46.662Z,1005.17
2018-01-02T10:19:46.601Z,1005.20
2018-01-02T10:20:46.540Z,1005.12
2018-01-02T10:21:46.480Z,1005.20
2018-01-02T10:22:46.420Z,1005.19
2018-01-02T10:23:46.358Z,1005.19
2018-01-02T10:24:46.296Z,1005.17
2018-01-02T10:25:46.297Z,1005.14
2018-01-02T10:26:46.177Z,1005.13
2018-01-02T10:27:46.115Z,1005.14
2018-01-02T10:28:46.055Z,1005.11
2018-01-02T10:29:45.995Z,1005.15
2018-01-02T10:30:45.934Z,1005.11
2018-01-02T10:31:45.873Z,1005.08
2018-01-02T10:32:45.813Z,1005.13
2018-01-02T10:33:45.752Z,1005.21
2018-01-02T10:34:45.692Z,1005.15
2018-01-02T10:35:45.636Z,1005.19
2018-01-02T10:36:45.570Z,1005.22
2018-01-02T10:37:45.515Z,1005.22
2018-01-02T10:38:45.451Z,1005.21
2018-01-02T10:39:45.390Z,1005.18
2018-01-02T10:40:45.329Z,1005.22
2018-01-02T10:41:45.269Z,1005.17
2018-01-02T10:42:45.209Z,1005.12
2018-01-02T10:43:45.148Z,1005.09
2018-01-02T10:44:45.088Z,1005.08
2018-01-02T10:45:45.028Z,1005.06
2018-01-02T10:46:44.968Z,1005.04
2018-01-02T10:47:44.907Z,1005.06
2018-01-02T10:48:44.846Z,1005.01
2018-01-02T10:49:44.786Z,1005.03
2018-01-02T10:50:44.726Z,1005.06
2018-01-02T10:51:44.665Z,1005.07
2018-01-02T10:52:44.607Z,1005.05
2018-01-02T10:53:44.543Z,1005.02
2018-01-02T10:54:44.483Z,1005.01
2018-01-02T10:55:44.420Z,1005.04
2018-01-02T10:56:44.365Z,1005.05
2018-01-02T10:57:44.300Z,1005.04
2018-01-02T10:58:44.239Z,1005.06
2018-01-02T10:59:44.185Z,1005.11
2018-01-02T11:00:44.117Z,1005.16
2018-01-02T11:01:44.058Z,1005.03
2018-01-02T11:02:43.997Z,1005.01
2018-01-02T11:03:43.935Z,1005.02
2018-01-02T11:04:43.875Z,1005.06
2018-01-02T11:05:43.814Z,1005.07
2018-01-02T11:06:43.754Z,1005.12
2018-01-02T11:07:43.693Z,1005.14
2018-01-02T11:08:43.634Z,1005.19
2018-01-02T11:09:43.571Z,1005.19
2018-01-02T11:10:43.509Z,1005.21
2018-01-02T11:11:43.447Z,1005.24
2018-01-02T11:12:43.385Z,1005.26
2018-01-02T11:13:43.324Z,1005.28
2018-01-02T11:14:43.262Z,1005.24
2018-01-02T11:15:43.199Z,1005.30
2018-01-02T11:16:43.138Z,1005.23
2018-01-02T11:17:43.077Z,1005.28
2018-01-02T11:18:43.014Z,1005.26
2018-01-02T11:19:42.950Z,1005.31
2018-01-02T11:20:42.889Z,1005.35
2018-01-02T11:21:42.826Z,1005.34
2018-01-02T11:22:42.764Z,1005.40
2018-01-02T11:23:42.702Z,1005.37
2018-01-02T11:24:42.638Z,1005.35
2018-01-02T11:25:42.580Z,1005.37
2018-01-02T11:26:42.513Z,1005.39
2018-01-02T11:27:42.450Z,1005.40
2018-01-02T11:28:42.386Z,1005.36
2018-01-02T11:29:42.324Z,1005.38
2018-01-02T11:30:42.262Z,1005.39
2018-01-02T11:31:42.198Z,1005.35
2018-01-02T11:32:42.135Z,1005.35
2018-01-02T11:33:42.072Z,1005.36
2018-01-02T11:34:42.009Z,1005.43
2018-01-02T11:35:41.947Z,1005.47
2018-01-02T11:36:41.882Z,1005.48
2018-01-02T11:37:41.819Z,1005.45
2018-01-02T11:38:41.756Z,1005.42
2018-01-02T11:39:41.697Z,1005.43
2018-01-02T11:40:41.629Z,1005.43
2018-01-02T11:41:41.565Z,1005.45
2018-01-02T11:42:41.503Z,1005.47
2018-01-02T11:43:41.438Z,1005.48
2018-01-02T11:44:41.374Z,1005.45
2018-01-02T11:45:41.311Z,1005.46
2018-01-02T11:46:41.248Z,1005.46
2018-01-02T11:47:41.186Z,1005.42
2018-01-02T11:48:41.122Z,1005.45
2018-01-02T11:49:41.057Z,1005.45
2018-01-02T11:50:40.994Z,1005.47
2018-01-02T11:51:40.929Z,1005.42
2018-01-02T11:52:40.866Z,1005.48
2018-01-02T11:53:40.802Z,1005.44
2018-01-02T11:54:40.739Z,1005.43
2018-01-02T11:55:40.675Z,1005.41
2018-01-02T11:56:40.612Z,1005.42
2018-01-02T11:57:40.547Z,1005.33
2018-01-02T11:58:40.483Z,1005.38
2018-01-02T11:59:40.419Z,1005.37
2018-01-02T12:00:40.356Z,1005.39
2018-01-02T12:01:40.292Z,1005.38
2018-01-02T12:02:40.229Z,1005.39
2018-01-02T12:03:40.164Z,1005.36
2018-01-02T12:04:40.102Z,1005.40
2018-01-02T12:05:40.037Z,1005.41
2018-01-02T12:06:39.975Z,1005.36
2018-01-02T12:07:39.912Z,1005.38
2018-01-02T12:08:39.847Z,1005.42
2018-01-02T12:09:39.783Z,1005.41
2018-01-02T12:10:39.720Z,1005.42
2018-01-02T12:11:39.656Z,1005.46
2018-01-02T12:12:39.593Z,1005.47
2018-01-02T12:13:39.530Z,1005.44
2018-01-02T12:14:39.466Z,1005.50
2018-01-02T12:15:39.401Z,1005.49